Babcock, WI

11:27 PM CDT on October 01, 2014 (GMT -0500)
Alexander Field South Wood County | Change Station
CLOSE
Current Station
Airport
Location: Wisconsin Rapids,
Elevation: 1020 ft
Nearby Weather Stations

Elev 1020 ft 44.36 °N, 89.84 °W | Updated 33 minutes ago

Overcast
Overcast
57 °F
Feels Like 57 °F
N
7
Wind Variable Wind from ESE

Today
High -- | Low -- °F
--% Chance of Precip.
Yesterday
High -- | Low -- °F
Precip. -- in
6:58 AM 6:41 PM
First Quarter, 54% visible
Pressure 29.89 in
Visibility 3.0 miles
Clouds Scattered Clouds 3800 ft
Mostly Cloudy 4600 ft
Overcast 8500 ft
Dew Point 55 °F
Humidity 93%
Rainfall 0.08 in
Snow Depth Not available.
UV 0 out of 12
Pollen 1.10 out of 12
Air Quality Not available.
Flu Activity Not available.
METAR KISW 020354Z AUTO 12006KT 3SM RA BR SCT038 BKN046 OVC085 14/13 A2989 RMK AO2 RAE09B29 SLP121 P0008 T01390128

More Conditions Fewer Conditions

Pressure 29.89 in
Visibility 3.0 miles
Clouds Scattered Clouds 3800 ft
Mostly Cloudy 4600 ft
Overcast 8500 ft
Dew Point 55 °F
Humidity 93%
Rainfall 0.08 in
Snow Depth Not available.
UV 0 out of 12
Pollen 1.10 out of 12
Air Quality Not available.
Flu Activity Not available.
METAR KISW 020354Z AUTO 12006KT 3SM RA BR SCT038 BKN046 OVC085 14/13 A2989 RMK AO2 RAE09B29 SLP121 P0008 T01390128

More Conditions Fewer Conditions

10-Day Weather Forecast

Almanac

Astronomy

Oct. 01, 2014 Rise Set
Actual Time 6:58 AM CDT 6:41 PM CDT
Civil Twilight 6:29 AM CDT 7:10 PM CDT
Nautical Twilight 5:55 AM CDT 7:43 PM CDT
Astronomical Twilight 5:21 AM CDT 8:17 PM CDT
Moon 2:08 PM CDT (10/1) No Moon Set
Length of Visible Light 12h 40m
Length of Day
11h 42m
Tomorrow will be 3m 2s shorter.
First Quarter, 54% of the Moon is Illuminated
Oct 2
First Quarter
Oct 8
Full
Oct 15
Last Quarter
Oct 23
New
Oct 30
First Quarter

Yesterday's Extremes

State Highs State Lows

Community

WunderPhotos

Upload Photos

1,758,186 photos uploaded!

Nearby

Snow Depth

Station Depth Elevation
No new snow has been reported.

Earthquake Activity

City Distance Mag. Time & Date
No recent earthquake activity has been reported nearby.
Minimum magnitude displayed is 2.5.

Coastal Water Temperatures

Place Temperature
No Stations Reporting

Nearby Weather Stations